sensor_id;sensor_type;location;lat;lon;timestamp;P1;durP1;ratioP1;P2;durP2;ratioP2
6029;SDS011;3043;42.682;23.376;2022-12-18T00:00:43;11.67;;;7.60;;
6029;SDS011;3043;42.682;23.376;2022-12-18T00:03:09;12.67;;;7.77;;
6029;SDS011;3043;42.682;23.376;2022-12-18T00:05:35;13.67;;;8.57;;
6029;SDS011;3043;42.682;23.376;2022-12-18T00:08:01;12.80;;;7.37;;
6029;SDS011;3043;42.682;23.376;2022-12-18T00:10:27;14.27;;;8.37;;
6029;SDS011;3043;42.682;23.376;2022-12-18T00:12:53;11.17;;;7.37;;
6029;SDS011;3043;42.682;23.376;2022-12-18T00:15:19;12.43;;;8.37;;
6029;SDS011;3043;42.682;23.376;2022-12-18T00:17:44;14.07;;;8.37;;
6029;SDS011;3043;42.682;23.376;2022-12-18T00:20:10;11.70;;;7.30;;
6029;SDS011;3043;42.682;23.376;2022-12-18T00:22:35;14.03;;;9.60;;
6029;SDS011;3043;42.682;23.376;2022-12-18T00:25:01;14.17;;;9.10;;
6029;SDS011;3043;42.682;23.376;2022-12-18T00:27:26;14.23;;;8.63;;
6029;SDS011;3043;42.682;23.376;2022-12-18T00:29:52;13.87;;;8.30;;
6029;SDS011;3043;42.682;23.376;2022-12-18T00:32:17;15.80;;;8.90;;
6029;SDS011;3043;42.682;23.376;2022-12-18T00:34:43;13.07;;;8.53;;
6029;SDS011;3043;42.682;23.376;2022-12-18T00:37:08;13.30;;;8.90;;
6029;SDS011;3043;42.682;23.376;2022-12-18T00:39:34;12.97;;;8.53;;
6029;SDS011;3043;42.682;23.376;2022-12-18T00:41:59;13.00;;;8.53;;
6029;SDS011;3043;42.682;23.376;2022-12-18T00:44:43;13.17;;;8.17;;
6029;SDS011;3043;42.682;23.376;2022-12-18T00:47:09;14.70;;;9.17;;
6029;SDS011;3043;42.682;23.376;2022-12-18T00:49:34;13.97;;;9.23;;
6029;SDS011;3043;42.682;23.376;2022-12-18T00:51:59;14.23;;;8.47;;
6029;SDS011;3043;42.682;23.376;2022-12-18T00:54:25;15.03;;;8.40;;
6029;SDS011;3043;42.682;23.376;2022-12-18T00:56:50;11.90;;;7.90;;
6029;SDS011;3043;42.682;23.376;2022-12-18T00:59:17;13.23;;;7.73;;
6029;SDS011;3043;42.682;23.376;2022-12-18T01:01:43;12.83;;;8.23;;
6029;SDS011;3043;42.682;23.376;2022-12-18T01:04:08;12.93;;;7.87;;
6029;SDS011;3043;42.682;23.376;2022-12-18T01:06:34;13.87;;;8.70;;
6029;SDS011;3043;42.682;23.376;2022-12-18T01:08:59;13.23;;;8.63;;
6029;SDS011;3043;42.682;23.376;2022-12-18T01:11:25;12.50;;;8.20;;
6029;SDS011;3043;42.682;23.376;2022-12-18T01:13:51;14.80;;;8.60;;
6029;SDS011;3043;42.682;23.376;2022-12-18T01:16:19;12.77;;;8.63;;
6029;SDS011;3043;42.682;23.376;2022-12-18T01:18:45;13.93;;;8.27;;
6029;SDS011;3043;42.682;23.376;2022-12-18T01:21:11;13.93;;;8.90;;
6029;SDS011;3043;42.682;23.376;2022-12-18T01:23:39;12.90;;;8.50;;
6029;SDS011;3043;42.682;23.376;2022-12-18T01:26:09;12.97;;;8.63;;
6029;SDS011;3043;42.682;23.376;2022-12-18T01:28:37;14.37;;;9.07;;
6029;SDS011;3043;42.682;23.376;2022-12-18T01:31:35;13.77;;;8.73;;
6029;SDS011;3043;42.682;23.376;2022-12-18T01:33:55;14.33;;;9.40;;
6029;SDS011;3043;42.682;23.376;2022-12-18T01:36:25;13.27;;;8.57;;
6029;SDS011;3043;42.682;23.376;2022-12-18T01:38:55;14.23;;;9.47;;
6029;SDS011;3043;42.682;23.376;2022-12-18T01:41:25;15.23;;;10.17;;
6029;SDS011;3043;42.682;23.376;2022-12-18T01:47:22;15.83;;;9.30;;
6029;SDS011;3043;42.682;23.376;2022-12-18T01:50:14;17.47;;;10.40;;
6029;SDS011;3043;42.682;23.376;2022-12-18T01:52:47;15.17;;;9.60;;
6029;SDS011;3043;42.682;23.376;2022-12-18T01:55:18;15.93;;;10.17;;
6029;SDS011;3043;42.682;23.376;2022-12-18T01:57:45;14.87;;;9.70;;
6029;SDS011;3043;42.682;23.376;2022-12-18T02:00:16;15.27;;;9.47;;
6029;SDS011;3043;42.682;23.376;2022-12-18T02:02:44;16.03;;;9.53;;
6029;SDS011;3043;42.682;23.376;2022-12-18T02:05:12;14.93;;;9.17;;
6029;SDS011;3043;42.682;23.376;2022-12-18T02:18:56;13.10;;;8.30;;
6029;SDS011;3043;42.682;23.376;2022-12-18T02:21:27;13.70;;;9.30;;
6029;SDS011;3043;42.682;23.376;2022-12-18T02:24:11;13.20;;;9.03;;
6029;SDS011;3043;42.682;23.376;2022-12-18T02:26:49;12.57;;;7.93;;
6029;SDS011;3043;42.682;23.376;2022-12-18T02:29:21;12.57;;;8.97;;
6029;SDS011;3043;42.682;23.376;2022-12-18T02:31:53;14.27;;;9.03;;
6029;SDS011;3043;42.682;23.376;2022-12-18T02:34:22;12.77;;;8.40;;
6029;SDS011;3043;42.682;23.376;2022-12-18T02:36:53;14.87;;;8.90;;
6029;SDS011;3043;42.682;23.376;2022-12-18T02:39:21;12.37;;;8.23;;
6029;SDS011;3043;42.682;23.376;2022-12-18T02:41:49;15.07;;;8.73;;
6029;SDS011;3043;42.682;23.376;2022-12-18T02:44:15;13.30;;;7.93;;
6029;SDS011;3043;42.682;23.376;2022-12-18T02:46:50;12.03;;;8.27;;
6029;SDS011;3043;42.682;23.376;2022-12-18T02:58:03;14.00;;;8.50;;
6029;SDS011;3043;42.682;23.376;2022-12-18T03:03:22;12.73;;;8.40;;
6029;SDS011;3043;42.682;23.376;2022-12-18T03:08:24;12.83;;;9.13;;
6029;SDS011;3043;42.682;23.376;2022-12-18T03:11:11;15.97;;;9.20;;
6029;SDS011;3043;42.682;23.376;2022-12-18T03:16:20;14.57;;;9.07;;
6029;SDS011;3043;42.682;23.376;2022-12-18T03:18:58;15.37;;;8.77;;
6029;SDS011;3043;42.682;23.376;2022-12-18T03:21:32;12.80;;;8.03;;
6029;SDS011;3043;42.682;23.376;2022-12-18T03:24:02;13.07;;;8.40;;
6029;SDS011;3043;42.682;23.376;2022-12-18T03:26:33;14.27;;;8.80;;
6029;SDS011;3043;42.682;23.376;2022-12-18T03:29:02;12.80;;;8.80;;
6029;SDS011;3043;42.682;23.376;2022-12-18T03:31:32;12.27;;;8.07;;
6029;SDS011;3043;42.682;23.376;2022-12-18T03:33:58;13.33;;;8.33;;
6029;SDS011;3043;42.682;23.376;2022-12-18T03:36:29;13.27;;;8.00;;
6029;SDS011;3043;42.682;23.376;2022-12-18T03:38:58;13.40;;;8.93;;
6029;SDS011;3043;42.682;23.376;2022-12-18T03:44:43;13.73;;;9.03;;
6029;SDS011;3043;42.682;23.376;2022-12-18T03:47:05;14.37;;;8.97;;
6029;SDS011;3043;42.682;23.376;2022-12-18T03:49:36;18.47;;;9.63;;
6029;SDS011;3043;42.682;23.376;2022-12-18T03:52:10;14.17;;;8.97;;
6029;SDS011;3043;42.682;23.376;2022-12-18T03:54:43;13.57;;;9.00;;
6029;SDS011;3043;42.682;23.376;2022-12-18T03:57:12;14.60;;;9.17;;
6029;SDS011;3043;42.682;23.376;2022-12-18T03:59:40;13.90;;;8.97;;
6029;SDS011;3043;42.682;23.376;2022-12-18T04:02:09;14.60;;;8.80;;
6029;SDS011;3043;42.682;23.376;2022-12-18T04:04:38;15.33;;;8.80;;
6029;SDS011;3043;42.682;23.376;2022-12-18T04:07:06;15.57;;;8.83;;
6029;SDS011;3043;42.682;23.376;2022-12-18T04:09:32;13.23;;;7.97;;
6029;SDS011;3043;42.682;23.376;2022-12-18T04:11:59;15.13;;;8.63;;
6029;SDS011;3043;42.682;23.376;2022-12-18T04:14:24;13.53;;;8.43;;
6029;SDS011;3043;42.682;23.376;2022-12-18T04:16:50;14.37;;;9.00;;
6029;SDS011;3043;42.682;23.376;2022-12-18T04:19:15;14.10;;;8.17;;
6029;SDS011;3043;42.682;23.376;2022-12-18T04:21:41;15.70;;;9.27;;
6029;SDS011;3043;42.682;23.376;2022-12-18T04:24:06;13.37;;;9.20;;
6029;SDS011;3043;42.682;23.376;2022-12-18T04:26:32;16.17;;;9.90;;
6029;SDS011;3043;42.682;23.376;2022-12-18T04:28:57;18.47;;;10.00;;
6029;SDS011;3043;42.682;23.376;2022-12-18T04:31:23;16.77;;;9.73;;
6029;SDS011;3043;42.682;23.376;2022-12-18T04:33:48;16.73;;;9.93;;
6029;SDS011;3043;42.682;23.376;2022-12-18T04:36:13;14.77;;;9.13;;
6029;SDS011;3043;42.682;23.376;2022-12-18T04:38:39;19.17;;;10.00;;
6029;SDS011;3043;42.682;23.376;2022-12-18T04:41:04;17.57;;;10.10;;
6029;SDS011;3043;42.682;23.376;2022-12-18T04:43:30;17.60;;;10.30;;
6029;SDS011;3043;42.682;23.376;2022-12-18T04:46:04;15.57;;;10.13;;
6029;SDS011;3043;42.682;23.376;2022-12-18T04:48:31;20.93;;;10.43;;
6029;SDS011;3043;42.682;23.376;2022-12-18T04:50:57;18.40;;;10.30;;
6029;SDS011;3043;42.682;23.376;2022-12-18T04:53:23;17.83;;;9.80;;
6029;SDS011;3043;42.682;23.376;2022-12-18T04:55:48;17.93;;;11.10;;
6029;SDS011;3043;42.682;23.376;2022-12-18T04:58:14;16.17;;;10.37;;
6029;SDS011;3043;42.682;23.376;2022-12-18T05:00:39;17.33;;;10.60;;
6029;SDS011;3043;42.682;23.376;2022-12-18T05:03:05;17.77;;;11.47;;
6029;SDS011;3043;42.682;23.376;2022-12-18T05:05:30;16.90;;;10.10;;
6029;SDS011;3043;42.682;23.376;2022-12-18T05:07:56;16.20;;;10.63;;
6029;SDS011;3043;42.682;23.376;2022-12-18T05:10:21;18.13;;;11.50;;
6029;SDS011;3043;42.682;23.376;2022-12-18T05:12:47;19.70;;;11.33;;
6029;SDS011;3043;42.682;23.376;2022-12-18T05:15:32;19.53;;;11.50;;
6029;SDS011;3043;42.682;23.376;2022-12-18T05:17:58;17.83;;;11.17;;
6029;SDS011;3043;42.682;23.376;2022-12-18T05:20:24;18.80;;;11.47;;
6029;SDS011;3043;42.682;23.376;2022-12-18T05:22:50;18.93;;;11.67;;
6029;SDS011;3043;42.682;23.376;2022-12-18T05:25:16;19.17;;;11.13;;
6029;SDS011;3043;42.682;23.376;2022-12-18T05:27:42;19.97;;;12.57;;
6029;SDS011;3043;42.682;23.376;2022-12-18T05:30:08;21.73;;;12.97;;
6029;SDS011;3043;42.682;23.376;2022-12-18T05:32:35;19.80;;;12.90;;
6029;SDS011;3043;42.682;23.376;2022-12-18T05:35:00;20.60;;;11.87;;
6029;SDS011;3043;42.682;23.376;2022-12-18T05:37:26;19.87;;;12.43;;
6029;SDS011;3043;42.682;23.376;2022-12-18T05:39:51;20.60;;;12.57;;
6029;SDS011;3043;42.682;23.376;2022-12-18T05:42:17;20.10;;;13.03;;
6029;SDS011;3043;42.682;23.376;2022-12-18T05:44:43;19.70;;;11.77;;
6029;SDS011;3043;42.682;23.376;2022-12-18T05:47:09;19.40;;;11.87;;
6029;SDS011;3043;42.682;23.376;2022-12-18T05:49:34;19.97;;;11.93;;
6029;SDS011;3043;42.682;23.376;2022-12-18T05:51:59;17.87;;;11.10;;
6029;SDS011;3043;42.682;23.376;2022-12-18T05:54:26;21.27;;;12.53;;
6029;SDS011;3043;42.682;23.376;2022-12-18T05:56:52;19.70;;;11.53;;
6029;SDS011;3043;42.682;23.376;2022-12-18T05:59:18;19.80;;;12.53;;
6029;SDS011;3043;42.682;23.376;2022-12-18T06:01:44;18.53;;;11.47;;
6029;SDS011;3043;42.682;23.376;2022-12-18T06:04:10;21.47;;;12.47;;
6029;SDS011;3043;42.682;23.376;2022-12-18T06:06:35;20.33;;;12.70;;
6029;SDS011;3043;42.682;23.376;2022-12-18T06:09:01;20.97;;;12.93;;
6029;SDS011;3043;42.682;23.376;2022-12-18T06:11:33;20.67;;;11.87;;
6029;SDS011;3043;42.682;23.376;2022-12-18T06:14:00;23.70;;;13.63;;
6029;SDS011;3043;42.682;23.376;2022-12-18T06:16:25;23.03;;;13.53;;
6029;SDS011;3043;42.682;23.376;2022-12-18T06:18:52;21.80;;;12.53;;
6029;SDS011;3043;42.682;23.376;2022-12-18T06:21:17;20.20;;;12.90;;
6029;SDS011;3043;42.682;23.376;2022-12-18T06:23:43;19.97;;;12.27;;
6029;SDS011;3043;42.682;23.376;2022-12-18T06:26:09;22.73;;;12.17;;
6029;SDS011;3043;42.682;23.376;2022-12-18T06:28:36;21.63;;;12.50;;
6029;SDS011;3043;42.682;23.376;2022-12-18T06:31:02;21.50;;;12.77;;
6029;SDS011;3043;42.682;23.376;2022-12-18T06:33:29;21.80;;;12.90;;
6029;SDS011;3043;42.682;23.376;2022-12-18T06:35:59;22.57;;;13.60;;
6029;SDS011;3043;42.682;23.376;2022-12-18T06:38:29;25.07;;;14.70;;
6029;SDS011;3043;42.682;23.376;2022-12-18T06:40:54;22.00;;;12.80;;
6029;SDS011;3043;42.682;23.376;2022-12-18T06:43:19;24.63;;;12.83;;
6029;SDS011;3043;42.682;23.376;2022-12-18T06:45:45;21.77;;;13.47;;
6029;SDS011;3043;42.682;23.376;2022-12-18T06:48:14;21.53;;;12.07;;
6029;SDS011;3043;42.682;23.376;2022-12-18T06:50:41;20.10;;;11.57;;
6029;SDS011;3043;42.682;23.376;2022-12-18T06:53:08;22.63;;;12.43;;
6029;SDS011;3043;42.682;23.376;2022-12-18T06:55:33;23.10;;;12.67;;
6029;SDS011;3043;42.682;23.376;2022-12-18T06:57:58;20.97;;;12.43;;
6029;SDS011;3043;42.682;23.376;2022-12-18T07:00:24;24.10;;;13.20;;
6029;SDS011;3043;42.682;23.376;2022-12-18T07:02:49;20.90;;;13.10;;
6029;SDS011;3043;42.682;23.376;2022-12-18T07:05:15;24.20;;;13.43;;
6029;SDS011;3043;42.682;23.376;2022-12-18T07:07:40;22.97;;;12.50;;
6029;SDS011;3043;42.682;23.376;2022-12-18T07:10:06;20.07;;;12.20;;
6029;SDS011;3043;42.682;23.376;2022-12-18T07:12:31;21.73;;;13.07;;
6029;SDS011;3043;42.682;23.376;2022-12-18T07:14:57;21.93;;;12.23;;
6029;SDS011;3043;42.682;23.376;2022-12-18T07:17:23;22.90;;;12.00;;
6029;SDS011;3043;42.682;23.376;2022-12-18T07:19:48;19.80;;;12.33;;
6029;SDS011;3043;42.682;23.376;2022-12-18T07:22:13;22.50;;;13.17;;
6029;SDS011;3043;42.682;23.376;2022-12-18T07:24:39;24.67;;;12.67;;
6029;SDS011;3043;42.682;23.376;2022-12-18T07:27:04;20.67;;;12.67;;
6029;SDS011;3043;42.682;23.376;2022-12-18T07:29:30;24.77;;;14.00;;
6029;SDS011;3043;42.682;23.376;2022-12-18T07:31:55;23.33;;;12.73;;
6029;SDS011;3043;42.682;23.376;2022-12-18T07:34:21;23.47;;;13.17;;
6029;SDS011;3043;42.682;23.376;2022-12-18T07:36:48;22.43;;;14.53;;
6029;SDS011;3043;42.682;23.376;2022-12-18T07:39:13;22.10;;;13.90;;
6029;SDS011;3043;42.682;23.376;2022-12-18T07:41:38;21.63;;;13.63;;
6029;SDS011;3043;42.682;23.376;2022-12-18T07:44:09;23.20;;;14.00;;
6029;SDS011;3043;42.682;23.376;2022-12-18T07:46:35;23.53;;;14.50;;
6029;SDS011;3043;42.682;23.376;2022-12-18T07:49:00;23.00;;;12.93;;
6029;SDS011;3043;42.682;23.376;2022-12-18T07:51:26;22.27;;;14.27;;
6029;SDS011;3043;42.682;23.376;2022-12-18T07:53:51;27.73;;;15.57;;
6029;SDS011;3043;42.682;23.376;2022-12-18T07:56:17;29.73;;;17.47;;
6029;SDS011;3043;42.682;23.376;2022-12-18T07:58:42;22.80;;;14.27;;
6029;SDS011;3043;42.682;23.376;2022-12-18T08:01:10;28.50;;;15.23;;
6029;SDS011;3043;42.682;23.376;2022-12-18T08:03:37;25.20;;;14.93;;
6029;SDS011;3043;42.682;23.376;2022-12-18T08:06:05;23.03;;;13.87;;
6029;SDS011;3043;42.682;23.376;2022-12-18T08:08:32;23.10;;;13.83;;
6029;SDS011;3043;42.682;23.376;2022-12-18T08:10:58;25.93;;;15.83;;
6029;SDS011;3043;42.682;23.376;2022-12-18T08:13:24;26.57;;;15.23;;
6029;SDS011;3043;42.682;23.376;2022-12-18T08:15:57;28.40;;;15.47;;
6029;SDS011;3043;42.682;23.376;2022-12-18T08:18:27;25.77;;;16.23;;
6029;SDS011;3043;42.682;23.376;2022-12-18T08:20:53;23.20;;;15.33;;
6029;SDS011;3043;42.682;23.376;2022-12-18T08:23:19;25.83;;;15.23;;
6029;SDS011;3043;42.682;23.376;2022-12-18T08:25:44;27.30;;;16.37;;
6029;SDS011;3043;42.682;23.376;2022-12-18T08:28:10;27.23;;;16.20;;
6029;SDS011;3043;42.682;23.376;2022-12-18T08:30:35;27.00;;;16.23;;
6029;SDS011;3043;42.682;23.376;2022-12-18T08:33:01;24.90;;;15.43;;
6029;SDS011;3043;42.682;23.376;2022-12-18T08:35:26;24.40;;;15.60;;
6029;SDS011;3043;42.682;23.376;2022-12-18T08:37:53;28.97;;;17.00;;
6029;SDS011;3043;42.682;23.376;2022-12-18T08:40:18;26.77;;;15.43;;
6029;SDS011;3043;42.682;23.376;2022-12-18T08:42:44;28.73;;;16.70;;
6029;SDS011;3043;42.682;23.376;2022-12-18T08:45:27;26.87;;;14.30;;
6029;SDS011;3043;42.682;23.376;2022-12-18T08:47:53;25.30;;;14.40;;
6029;SDS011;3043;42.682;23.376;2022-12-18T08:50:19;28.30;;;15.83;;
6029;SDS011;3043;42.682;23.376;2022-12-18T08:52:45;27.00;;;15.23;;
6029;SDS011;3043;42.682;23.376;2022-12-18T08:55:10;26.13;;;14.40;;
6029;SDS011;3043;42.682;23.376;2022-12-18T08:57:36;23.90;;;14.67;;
6029;SDS011;3043;42.682;23.376;2022-12-18T09:00:02;25.50;;;14.03;;
6029;SDS011;3043;42.682;23.376;2022-12-18T09:02:28;29.83;;;15.33;;
6029;SDS011;3043;42.682;23.376;2022-12-18T09:04:54;27.53;;;14.83;;
6029;SDS011;3043;42.682;23.376;2022-12-18T09:07:19;21.90;;;13.27;;
6029;SDS011;3043;42.682;23.376;2022-12-18T09:09:45;23.43;;;13.97;;
6029;SDS011;3043;42.682;23.376;2022-12-18T09:12:10;25.70;;;14.57;;
6029;SDS011;3043;42.682;23.376;2022-12-18T09:14:35;28.00;;;14.10;;
6029;SDS011;3043;42.682;23.376;2022-12-18T09:17:01;25.30;;;14.30;;
6029;SDS011;3043;42.682;23.376;2022-12-18T09:19:26;24.43;;;14.60;;
6029;SDS011;3043;42.682;23.376;2022-12-18T09:21:52;22.10;;;13.17;;
6029;SDS011;3043;42.682;23.376;2022-12-18T09:24:17;26.07;;;14.40;;
6029;SDS011;3043;42.682;23.376;2022-12-18T09:26:43;25.57;;;14.17;;
6029;SDS011;3043;42.682;23.376;2022-12-18T09:29:09;22.07;;;12.53;;
6029;SDS011;3043;42.682;23.376;2022-12-18T09:31:35;26.13;;;14.67;;
6029;SDS011;3043;42.682;23.376;2022-12-18T09:34:01;23.63;;;14.40;;
6029;SDS011;3043;42.682;23.376;2022-12-18T09:36:27;19.43;;;12.10;;
6029;SDS011;3043;42.682;23.376;2022-12-18T09:38:52;20.63;;;12.03;;
6029;SDS011;3043;42.682;23.376;2022-12-18T09:43:54;24.50;;;13.53;;
6029;SDS011;3043;42.682;23.376;2022-12-18T09:46:26;27.70;;;14.63;;
6029;SDS011;3043;42.682;23.376;2022-12-18T09:48:54;21.63;;;12.40;;
6029;SDS011;3043;42.682;23.376;2022-12-18T09:51:28;19.63;;;11.80;;
6029;SDS011;3043;42.682;23.376;2022-12-18T09:54:00;22.70;;;12.33;;
6029;SDS011;3043;42.682;23.376;2022-12-18T09:56:31;21.23;;;12.57;;
6029;SDS011;3043;42.682;23.376;2022-12-18T09:59:02;23.57;;;13.27;;
6029;SDS011;3043;42.682;23.376;2022-12-18T10:01:29;21.07;;;12.33;;
6029;SDS011;3043;42.682;23.376;2022-12-18T10:03:56;20.77;;;11.37;;
6029;SDS011;3043;42.682;23.376;2022-12-18T10:15:24;20.83;;;13.03;;
6029;SDS011;3043;42.682;23.376;2022-12-18T10:19:59;25.80;;;14.07;;
6029;SDS011;3043;42.682;23.376;2022-12-18T10:25:27;21.47;;;13.00;;
6029;SDS011;3043;42.682;23.376;2022-12-18T10:28:20;20.87;;;12.70;;
6029;SDS011;3043;42.682;23.376;2022-12-18T10:30:45;20.33;;;12.50;;
6029;SDS011;3043;42.682;23.376;2022-12-18T10:33:16;21.47;;;12.20;;
6029;SDS011;3043;42.682;23.376;2022-12-18T10:35:43;19.40;;;11.77;;
6029;SDS011;3043;42.682;23.376;2022-12-18T10:45:59;19.40;;;11.47;;
6029;SDS011;3043;42.682;23.376;2022-12-18T10:48:25;21.73;;;11.83;;
6029;SDS011;3043;42.682;23.376;2022-12-18T10:50:51;22.10;;;13.40;;
6029;SDS011;3043;42.682;23.376;2022-12-18T10:53:25;23.63;;;12.67;;
6029;SDS011;3043;42.682;23.376;2022-12-18T10:55:53;21.67;;;12.77;;
6029;SDS011;3043;42.682;23.376;2022-12-18T10:58:25;24.43;;;13.67;;
6029;SDS011;3043;42.682;23.376;2022-12-18T11:03:44;23.50;;;13.63;;
6029;SDS011;3043;42.682;23.376;2022-12-18T11:08:35;23.07;;;13.43;;
6029;SDS011;3043;42.682;23.376;2022-12-18T11:11:01;21.43;;;12.90;;
6029;SDS011;3043;42.682;23.376;2022-12-18T11:13:28;21.53;;;12.23;;
6029;SDS011;3043;42.682;23.376;2022-12-18T11:15:55;23.37;;;13.20;;
6029;SDS011;3043;42.682;23.376;2022-12-18T11:18:30;24.13;;;13.53;;
6029;SDS011;3043;42.682;23.376;2022-12-18T11:21:08;22.53;;;12.37;;
6029;SDS011;3043;42.682;23.376;2022-12-18T11:23:36;22.10;;;12.93;;
6029;SDS011;3043;42.682;23.376;2022-12-18T11:26:09;21.87;;;13.00;;
6029;SDS011;3043;42.682;23.376;2022-12-18T11:28:36;20.93;;;12.27;;
6029;SDS011;3043;42.682;23.376;2022-12-18T11:31:21;21.40;;;12.13;;
6029;SDS011;3043;42.682;23.376;2022-12-18T11:36:42;22.97;;;13.10;;
6029;SDS011;3043;42.682;23.376;2022-12-18T11:42:08;22.53;;;13.10;;
6029;SDS011;3043;42.682;23.376;2022-12-18T11:44:42;22.17;;;13.10;;
6029;SDS011;3043;42.682;23.376;2022-12-18T11:50:05;23.47;;;13.33;;
6029;SDS011;3043;42.682;23.376;2022-12-18T11:52:39;22.83;;;13.83;;
6029;SDS011;3043;42.682;23.376;2022-12-18T11:55:27;26.13;;;14.47;;
6029;SDS011;3043;42.682;23.376;2022-12-18T12:06:09;23.20;;;13.43;;
6029;SDS011;3043;42.682;23.376;2022-12-18T12:30:20;24.33;;;13.57;;
6029;SDS011;3043;42.682;23.376;2022-12-18T12:32:59;27.83;;;15.20;;
6029;SDS011;3043;42.682;23.376;2022-12-18T12:41:03;20.93;;;12.83;;
6029;SDS011;3043;42.682;23.376;2022-12-18T12:43:43;22.70;;;13.63;;
6029;SDS011;3043;42.682;23.376;2022-12-18T12:46:13;23.07;;;14.13;;
6029;SDS011;3043;42.682;23.376;2022-12-18T12:48:56;21.70;;;13.97;;
6029;SDS011;3043;42.682;23.376;2022-12-18T12:51:37;27.27;;;15.20;;
6029;SDS011;3043;42.682;23.376;2022-12-18T12:54:09;21.53;;;12.73;;
6029;SDS011;3043;42.682;23.376;2022-12-18T13:02:18;26.67;;;14.33;;
6029;SDS011;3043;42.682;23.376;2022-12-18T13:04:48;21.17;;;13.10;;
6029;SDS011;3043;42.682;23.376;2022-12-18T13:12:57;20.47;;;12.47;;
6029;SDS011;3043;42.682;23.376;2022-12-18T13:23:01;24.43;;;14.10;;
6029;SDS011;3043;42.682;23.376;2022-12-18T13:25:59;24.17;;;13.47;;
6029;SDS011;3043;42.682;23.376;2022-12-18T13:31:02;24.87;;;12.43;;
6029;SDS011;3043;42.682;23.376;2022-12-18T13:36:00;22.40;;;13.20;;
6029;SDS011;3043;42.682;23.376;2022-12-18T13:41:38;24.73;;;14.87;;
6029;SDS011;3043;42.682;23.376;2022-12-18T13:43:53;24.83;;;13.57;;
6029;SDS011;3043;42.682;23.376;2022-12-18T13:51:17;24.03;;;13.73;;
6029;SDS011;3043;42.682;23.376;2022-12-18T13:53:52;26.20;;;14.67;;
6029;SDS011;3043;42.682;23.376;2022-12-18T13:56:24;21.03;;;12.97;;
6029;SDS011;3043;42.682;23.376;2022-12-18T14:01:43;23.37;;;12.87;;
6029;SDS011;3043;42.682;23.376;2022-12-18T14:04:10;25.77;;;13.03;;
6029;SDS011;3043;42.682;23.376;2022-12-18T14:06:36;19.97;;;12.00;;
6029;SDS011;3043;42.682;23.376;2022-12-18T14:09:02;22.47;;;13.47;;
6029;SDS011;3043;42.682;23.376;2022-12-18T14:11:28;22.43;;;11.97;;
6029;SDS011;3043;42.682;23.376;2022-12-18T14:13:55;23.17;;;12.97;;
6029;SDS011;3043;42.682;23.376;2022-12-18T14:16:21;23.43;;;13.63;;
6029;SDS011;3043;42.682;23.376;2022-12-18T14:18:54;23.90;;;13.97;;
6029;SDS011;3043;42.682;23.376;2022-12-18T14:21:25;19.13;;;12.43;;
6029;SDS011;3043;42.682;23.376;2022-12-18T14:24:05;19.60;;;12.47;;
6029;SDS011;3043;42.682;23.376;2022-12-18T14:26:34;20.70;;;12.77;;
6029;SDS011;3043;42.682;23.376;2022-12-18T14:29:00;26.63;;;15.70;;
6029;SDS011;3043;42.682;23.376;2022-12-18T14:31:43;24.47;;;13.23;;
6029;SDS011;3043;42.682;23.376;2022-12-18T14:34:14;22.57;;;12.73;;
6029;SDS011;3043;42.682;23.376;2022-12-18T14:36:53;21.03;;;12.93;;
6029;SDS011;3043;42.682;23.376;2022-12-18T14:39:20;22.47;;;13.00;;
6029;SDS011;3043;42.682;23.376;2022-12-18T14:41:48;22.20;;;12.83;;
6029;SDS011;3043;42.682;23.376;2022-12-18T14:44:14;23.70;;;12.93;;
6029;SDS011;3043;42.682;23.376;2022-12-18T14:46:44;21.93;;;12.80;;
6029;SDS011;3043;42.682;23.376;2022-12-18T14:49:29;19.73;;;11.67;;
6029;SDS011;3043;42.682;23.376;2022-12-18T14:52:00;21.20;;;11.13;;
6029;SDS011;3043;42.682;23.376;2022-12-18T14:54:28;22.10;;;12.53;;
6029;SDS011;3043;42.682;23.376;2022-12-18T14:56:57;22.50;;;12.47;;
6029;SDS011;3043;42.682;23.376;2022-12-18T14:59:27;20.90;;;12.03;;
6029;SDS011;3043;42.682;23.376;2022-12-18T15:01:57;20.93;;;12.00;;
6029;SDS011;3043;42.682;23.376;2022-12-18T15:04:28;19.10;;;11.87;;
6029;SDS011;3043;42.682;23.376;2022-12-18T15:07:13;21.73;;;11.37;;
6029;SDS011;3043;42.682;23.376;2022-12-18T15:09:42;20.63;;;11.77;;
6029;SDS011;3043;42.682;23.376;2022-12-18T15:12:34;20.20;;;11.63;;
6029;SDS011;3043;42.682;23.376;2022-12-18T15:15:01;17.73;;;11.10;;
6029;SDS011;3043;42.682;23.376;2022-12-18T15:17:28;19.60;;;11.83;;
6029;SDS011;3043;42.682;23.376;2022-12-18T15:19:58;23.40;;;11.50;;
6029;SDS011;3043;42.682;23.376;2022-12-18T15:22:34;19.70;;;10.47;;
6029;SDS011;3043;42.682;23.376;2022-12-18T15:25:01;21.97;;;11.23;;
6029;SDS011;3043;42.682;23.376;2022-12-18T15:27:32;18.63;;;10.60;;
6029;SDS011;3043;42.682;23.376;2022-12-18T15:32:31;19.37;;;10.87;;
6029;SDS011;3043;42.682;23.376;2022-12-18T15:37:34;19.40;;;11.70;;
6029;SDS011;3043;42.682;23.376;2022-12-18T15:40:00;22.73;;;12.10;;
6029;SDS011;3043;42.682;23.376;2022-12-18T15:42:27;22.30;;;12.27;;
6029;SDS011;3043;42.682;23.376;2022-12-18T15:45:11;20.63;;;11.57;;
6029;SDS011;3043;42.682;23.376;2022-12-18T15:47:38;20.20;;;11.60;;
6029;SDS011;3043;42.682;23.376;2022-12-18T15:50:05;22.27;;;12.50;;
6029;SDS011;3043;42.682;23.376;2022-12-18T15:52:49;22.67;;;12.50;;
6029;SDS011;3043;42.682;23.376;2022-12-18T15:55:18;21.20;;;12.87;;
6029;SDS011;3043;42.682;23.376;2022-12-18T15:58:04;20.70;;;11.23;;
6029;SDS011;3043;42.682;23.376;2022-12-18T16:00:31;22.07;;;12.27;;
6029;SDS011;3043;42.682;23.376;2022-12-18T16:02:57;19.47;;;11.93;;
6029;SDS011;3043;42.682;23.376;2022-12-18T16:05:23;21.80;;;12.20;;
6029;SDS011;3043;42.682;23.376;2022-12-18T16:07:49;22.83;;;12.27;;
6029;SDS011;3043;42.682;23.376;2022-12-18T16:10:15;22.43;;;13.23;;
6029;SDS011;3043;42.682;23.376;2022-12-18T16:12:40;22.60;;;12.63;;
6029;SDS011;3043;42.682;23.376;2022-12-18T16:15:06;21.90;;;12.40;;
6029;SDS011;3043;42.682;23.376;2022-12-18T16:17:32;22.00;;;12.53;;
6029;SDS011;3043;42.682;23.376;2022-12-18T16:19:58;25.43;;;13.33;;
6029;SDS011;3043;42.682;23.376;2022-12-18T16:22:24;23.53;;;13.13;;
6029;SDS011;3043;42.682;23.376;2022-12-18T16:24:52;20.60;;;11.77;;
6029;SDS011;3043;42.682;23.376;2022-12-18T16:27:19;23.43;;;12.30;;
6029;SDS011;3043;42.682;23.376;2022-12-18T16:29:45;20.57;;;11.97;;
6029;SDS011;3043;42.682;23.376;2022-12-18T16:32:15;22.53;;;12.83;;
6029;SDS011;3043;42.682;23.376;2022-12-18T16:34:42;24.57;;;13.33;;
6029;SDS011;3043;42.682;23.376;2022-12-18T16:37:09;21.37;;;11.90;;
6029;SDS011;3043;42.682;23.376;2022-12-18T16:39:37;25.93;;;12.43;;
6029;SDS011;3043;42.682;23.376;2022-12-18T16:42:09;23.80;;;12.50;;
6029;SDS011;3043;42.682;23.376;2022-12-18T16:44:42;23.80;;;13.40;;
6029;SDS011;3043;42.682;23.376;2022-12-18T16:47:11;23.70;;;13.03;;
6029;SDS011;3043;42.682;23.376;2022-12-18T16:49:36;20.07;;;11.73;;
6029;SDS011;3043;42.682;23.376;2022-12-18T16:52:03;21.77;;;12.63;;
6029;SDS011;3043;42.682;23.376;2022-12-18T16:54:32;21.00;;;12.60;;
6029;SDS011;3043;42.682;23.376;2022-12-18T16:57:00;23.73;;;12.37;;
6029;SDS011;3043;42.682;23.376;2022-12-18T16:59:27;23.80;;;11.90;;
6029;SDS011;3043;42.682;23.376;2022-12-18T17:01:54;21.77;;;12.87;;
6029;SDS011;3043;42.682;23.376;2022-12-18T17:04:21;24.37;;;13.50;;
6029;SDS011;3043;42.682;23.376;2022-12-18T17:06:47;23.63;;;13.30;;
6029;SDS011;3043;42.682;23.376;2022-12-18T17:09:20;23.97;;;13.90;;
6029;SDS011;3043;42.682;23.376;2022-12-18T17:11:50;24.40;;;13.67;;
6029;SDS011;3043;42.682;23.376;2022-12-18T17:14:18;24.00;;;13.67;;